National, Iowa
Current Conditions -  °F | °C
As of 3:35 PM on Friday 24 Oct 2014 (Local Time) from KPDC Reporting Station
Overcast Overcast  
Wind Chill: 62°   Ceiling: 2300
Heat Index: 62°   Visibility: 10mi
Dew Point: 54°   Wind: 7mph
Humidity: 73%   Direction: 200°SSW
Pressure: 29.89"   Gusts: NA
Location:  42.9505°N, 91.311°W
Report Text: KPDC 242035Z AUTO 20006KT 10SM OVC023 17/12 A2989 RMK AO2 T01690121
Loading
Personal Weather Stations






























Interactive Weather Map
Tropical Storm Tracking
New forecast layout! Learn more

10-Day Weather Forecast

Advertisements
Track Severe Weather on mobile